sensor_id;sensor_type;location;lat;lon;timestamp;P1;P2;P0
49708;PMS5003;35601;55.902;13.606;2023-03-01T00:01:50;12;12;
49708;PMS5003;35601;55.902;13.606;2023-03-01T00:04:16;15;14;
49708;PMS5003;35601;55.902;13.606;2023-03-01T00:06:42;15;14;
49708;PMS5003;35601;55.902;13.606;2023-03-01T00:09:07;21;15;
49708;PMS5003;35601;55.902;13.606;2023-03-01T00:11:34;15;12;
49708;PMS5003;35601;55.902;13.606;2023-03-01T00:14:00;15;12;
49708;PMS5003;35601;55.902;13.606;2023-03-01T00:16:25;15;10;
49708;PMS5003;35601;55.902;13.606;2023-03-01T00:18:49;15;12;
49708;PMS5003;35601;55.902;13.606;2023-03-01T00:21:14;11;11;
49708;PMS5003;35601;55.902;13.606;2023-03-01T00:23:40;16;15;
49708;PMS5003;35601;55.902;13.606;2023-03-01T00:26:06;17;15;
49708;PMS5003;35601;55.902;13.606;2023-03-01T00:28:32;17;12;
49708;PMS5003;35601;55.902;13.606;2023-03-01T00:30:56;15;14;
49708;PMS5003;35601;55.902;13.606;2023-03-01T00:33:22;11;10;
49708;PMS5003;35601;55.902;13.606;2023-03-01T00:35:48;14;10;
49708;PMS5003;35601;55.902;13.606;2023-03-01T00:38:12;11;10;
49708;PMS5003;35601;55.902;13.606;2023-03-01T00:40:39;15;11;
49708;PMS5003;35601;55.902;13.606;2023-03-01T00:43:04;12;11;
49708;PMS5003;35601;55.902;13.606;2023-03-01T00:45:29;17;11;
49708;PMS5003;35601;55.902;13.606;2023-03-01T00:47:54;10;10;
49708;PMS5003;35601;55.902;13.606;2023-03-01T00:50:19;12;11;
49708;PMS5003;35601;55.902;13.606;2023-03-01T00:52:46;10;9;
49708;PMS5003;35601;55.902;13.606;2023-03-01T00:55:11;10;10;
49708;PMS5003;35601;55.902;13.606;2023-03-01T00:57:36;14;12;
49708;PMS5003;35601;55.902;13.606;2023-03-01T01:00:02;16;15;
49708;PMS5003;35601;55.902;13.606;2023-03-01T01:02:27;16;14;
49708;PMS5003;35601;55.902;13.606;2023-03-01T01:04:54;8;8;
49708;PMS5003;35601;55.902;13.606;2023-03-01T01:07:19;11;10;
49708;PMS5003;35601;55.902;13.606;2023-03-01T01:09:43;12;10;
49708;PMS5003;35601;55.902;13.606;2023-03-01T01:12:09;12;11;
49708;PMS5003;35601;55.902;13.606;2023-03-01T01:14:34;28;22;
49708;PMS5003;35601;55.902;13.606;2023-03-01T01:17:01;20;18;
49708;PMS5003;35601;55.902;13.606;2023-03-01T01:19:26;15;13;
49708;PMS5003;35601;55.902;13.606;2023-03-01T01:21:51;18;14;
49708;PMS5003;35601;55.902;13.606;2023-03-01T01:24:16;18;13;
49708;PMS5003;35601;55.902;13.606;2023-03-01T01:26:41;11;11;
49708;PMS5003;35601;55.902;13.606;2023-03-01T01:29:07;16;13;
49708;PMS5003;35601;55.902;13.606;2023-03-01T01:31:32;14;14;
49708;PMS5003;35601;55.902;13.606;2023-03-01T01:33:58;17;14;
49708;PMS5003;35601;55.902;13.606;2023-03-01T01:36:23;13;10;
49708;PMS5003;35601;55.902;13.606;2023-03-01T01:38:49;14;13;
49708;PMS5003;35601;55.902;13.606;2023-03-01T01:41:14;18;15;
49708;PMS5003;35601;55.902;13.606;2023-03-01T01:43:39;14;13;
49708;PMS5003;35601;55.902;13.606;2023-03-01T01:46:04;26;17;
49708;PMS5003;35601;55.902;13.606;2023-03-01T01:48:32;13;13;
49708;PMS5003;35601;55.902;13.606;2023-03-01T01:50:55;22;16;
49708;PMS5003;35601;55.902;13.606;2023-03-01T01:53:20;18;14;
49708;PMS5003;35601;55.902;13.606;2023-03-01T01:55:47;33;21;
49708;PMS5003;35601;55.902;13.606;2023-03-01T01:58:13;21;20;
49708;PMS5003;35601;55.902;13.606;2023-03-01T02:00:36;26;23;
49708;PMS5003;35601;55.902;13.606;2023-03-01T02:03:02;23;17;
49708;PMS5003;35601;55.902;13.606;2023-03-01T02:05:28;22;18;
49708;PMS5003;35601;55.902;13.606;2023-03-01T02:07:52;27;18;
49708;PMS5003;35601;55.902;13.606;2023-03-01T02:10:17;20;20;
49708;PMS5003;35601;55.902;13.606;2023-03-01T02:12:42;21;15;
49708;PMS5003;35601;55.902;13.606;2023-03-01T02:15:07;18;17;
49708;PMS5003;35601;55.902;13.606;2023-03-01T02:17:33;20;18;
49708;PMS5003;35601;55.902;13.606;2023-03-01T02:20:03;23;20;
49708;PMS5003;35601;55.902;13.606;2023-03-01T02:22:24;35;23;
49708;PMS5003;35601;55.902;13.606;2023-03-01T02:24:52;23;17;
49708;PMS5003;35601;55.902;13.606;2023-03-01T02:27:14;16;14;
49708;PMS5003;35601;55.902;13.606;2023-03-01T02:29:40;23;18;
49708;PMS5003;35601;55.902;13.606;2023-03-01T02:32:07;22;17;
49708;PMS5003;35601;55.902;13.606;2023-03-01T02:34:32;18;15;
49708;PMS5003;35601;55.902;13.606;2023-03-01T02:36:57;24;17;
49708;PMS5003;35601;55.902;13.606;2023-03-01T02:39:23;15;15;
49708;PMS5003;35601;55.902;13.606;2023-03-01T02:41:47;17;15;
49708;PMS5003;35601;55.902;13.606;2023-03-01T02:44:14;21;15;
49708;PMS5003;35601;55.902;13.606;2023-03-01T02:46:43;22;17;
49708;PMS5003;35601;55.902;13.606;2023-03-01T02:51:33;17;15;
49708;PMS5003;35601;55.902;13.606;2023-03-01T02:53:58;22;16;
49708;PMS5003;35601;55.902;13.606;2023-03-01T02:56:18;26;20;
49708;PMS5003;35601;55.902;13.606;2023-03-01T02:58:44;30;26;
49708;PMS5003;35601;55.902;13.606;2023-03-01T03:01:09;23;15;
49708;PMS5003;35601;55.902;13.606;2023-03-01T03:03:35;26;21;
49708;PMS5003;35601;55.902;13.606;2023-03-01T03:06:02;29;23;
49708;PMS5003;35601;55.902;13.606;2023-03-01T03:08:26;26;17;
49708;PMS5003;35601;55.902;13.606;2023-03-01T03:10:51;22;20;
49708;PMS5003;35601;55.902;13.606;2023-03-01T03:13:18;22;20;
49708;PMS5003;35601;55.902;13.606;2023-03-01T03:15:43;24;20;
49708;PMS5003;35601;55.902;13.606;2023-03-01T03:18:09;22;21;
49708;PMS5003;35601;55.902;13.606;2023-03-01T03:20:35;21;19;
49708;PMS5003;35601;55.902;13.606;2023-03-01T03:22:59;25;21;
49708;PMS5003;35601;55.902;13.606;2023-03-01T03:25:27;21;21;
49708;PMS5003;35601;55.902;13.606;2023-03-01T03:27:50;33;22;
49708;PMS5003;35601;55.902;13.606;2023-03-01T03:30:17;23;19;
49708;PMS5003;35601;55.902;13.606;2023-03-01T03:32:41;22;21;
49708;PMS5003;35601;55.902;13.606;2023-03-01T03:35:07;21;21;
49708;PMS5003;35601;55.902;13.606;2023-03-01T03:37:31;25;19;
49708;PMS5003;35601;55.902;13.606;2023-03-01T03:39:58;27;16;
49708;PMS5003;35601;55.902;13.606;2023-03-01T03:42:23;20;16;
49708;PMS5003;35601;55.902;13.606;2023-03-01T03:44:47;27;20;
49708;PMS5003;35601;55.902;13.606;2023-03-01T03:47:13;20;16;
49708;PMS5003;35601;55.902;13.606;2023-03-01T03:49:38;19;19;
49708;PMS5003;35601;55.902;13.606;2023-03-01T03:52:05;25;22;
49708;PMS5003;35601;55.902;13.606;2023-03-01T03:54:30;20;15;
49708;PMS5003;35601;55.902;13.606;2023-03-01T03:56:55;20;19;
49708;PMS5003;35601;55.902;13.606;2023-03-01T03:59:20;25;18;
49708;PMS5003;35601;55.902;13.606;2023-03-01T04:01:47;22;18;
49708;PMS5003;35601;55.902;13.606;2023-03-01T04:04:12;24;17;
49708;PMS5003;35601;55.902;13.606;2023-03-01T04:06:37;21;19;
49708;PMS5003;35601;55.902;13.606;2023-03-01T04:09:03;32;25;
49708;PMS5003;35601;55.902;13.606;2023-03-01T04:11:30;27;19;
49708;PMS5003;35601;55.902;13.606;2023-03-01T04:13:54;27;22;
49708;PMS5003;35601;55.902;13.606;2023-03-01T04:16:20;31;22;
49708;PMS5003;35601;55.902;13.606;2023-03-01T04:18:45;37;26;
49708;PMS5003;35601;55.902;13.606;2023-03-01T04:21:11;26;24;
49708;PMS5003;35601;55.902;13.606;2023-03-01T04:23:36;30;26;
49708;PMS5003;35601;55.902;13.606;2023-03-01T04:26:03;26;20;
49708;PMS5003;35601;55.902;13.606;2023-03-01T04:28:29;34;26;
49708;PMS5003;35601;55.902;13.606;2023-03-01T04:30:52;33;27;
49708;PMS5003;35601;55.902;13.606;2023-03-01T04:33:18;28;26;
49708;PMS5003;35601;55.902;13.606;2023-03-01T04:35:43;31;24;
49708;PMS5003;35601;55.902;13.606;2023-03-01T04:38:09;31;27;
49708;PMS5003;35601;55.902;13.606;2023-03-01T04:40:34;37;28;
49708;PMS5003;35601;55.902;13.606;2023-03-01T04:43:00;29;25;
49708;PMS5003;35601;55.902;13.606;2023-03-01T04:45:25;34;29;
49708;PMS5003;35601;55.902;13.606;2023-03-01T04:47:51;29;26;
49708;PMS5003;35601;55.902;13.606;2023-03-01T04:50:17;39;34;
49708;PMS5003;35601;55.902;13.606;2023-03-01T04:52:44;35;25;
49708;PMS5003;35601;55.902;13.606;2023-03-01T04:55:08;36;31;
49708;PMS5003;35601;55.902;13.606;2023-03-01T04:57:33;34;27;
49708;PMS5003;35601;55.902;13.606;2023-03-01T04:59:58;46;32;
49708;PMS5003;35601;55.902;13.606;2023-03-01T05:02:23;32;29;
49708;PMS5003;35601;55.902;13.606;2023-03-01T05:04:49;46;36;
49708;PMS5003;35601;55.902;13.606;2023-03-01T05:07:14;46;31;
49708;PMS5003;35601;55.902;13.606;2023-03-01T05:09:39;38;25;
49708;PMS5003;35601;55.902;13.606;2023-03-01T05:12:05;40;31;
49708;PMS5003;35601;55.902;13.606;2023-03-01T05:14:30;42;38;
49708;PMS5003;35601;55.902;13.606;2023-03-01T05:16:56;43;32;
49708;PMS5003;35601;55.902;13.606;2023-03-01T05:19:22;51;38;
49708;PMS5003;35601;55.902;13.606;2023-03-01T05:21:47;51;35;
49708;PMS5003;35601;55.902;13.606;2023-03-01T05:24:12;49;44;
49708;PMS5003;35601;55.902;13.606;2023-03-01T05:26:37;59;47;
49708;PMS5003;35601;55.902;13.606;2023-03-01T05:29:03;49;39;
49708;PMS5003;35601;55.902;13.606;2023-03-01T05:31:28;48;36;
49708;PMS5003;35601;55.902;13.606;2023-03-01T05:33:55;55;44;
49708;PMS5003;35601;55.902;13.606;2023-03-01T05:36:18;52;43;
49708;PMS5003;35601;55.902;13.606;2023-03-01T05:38:44;60;45;
49708;PMS5003;35601;55.902;13.606;2023-03-01T05:41:14;53;44;
49708;PMS5003;35601;55.902;13.606;2023-03-01T05:43:35;47;44;
49708;PMS5003;35601;55.902;13.606;2023-03-01T05:46:00;51;39;
49708;PMS5003;35601;55.902;13.606;2023-03-01T05:48:26;48;38;
49708;PMS5003;35601;55.902;13.606;2023-03-01T05:50:51;53;38;
49708;PMS5003;35601;55.902;13.606;2023-03-01T05:53:17;50;42;
49708;PMS5003;35601;55.902;13.606;2023-03-01T05:55:42;48;40;
49708;PMS5003;35601;55.902;13.606;2023-03-01T05:58:09;47;40;
49708;PMS5003;35601;55.902;13.606;2023-03-01T06:00:34;44;38;
49708;PMS5003;35601;55.902;13.606;2023-03-01T06:02:59;42;36;
49708;PMS5003;35601;55.902;13.606;2023-03-01T06:05:24;42;36;
49708;PMS5003;35601;55.902;13.606;2023-03-01T06:07:49;47;34;
49708;PMS5003;35601;55.902;13.606;2023-03-01T06:10:15;58;40;
49708;PMS5003;35601;55.902;13.606;2023-03-01T06:12:42;69;50;
49708;PMS5003;35601;55.902;13.606;2023-03-01T06:15:07;62;49;
49708;PMS5003;35601;55.902;13.606;2023-03-01T06:17:33;62;46;
49708;PMS5003;35601;55.902;13.606;2023-03-01T06:19:58;58;50;
49708;PMS5003;35601;55.902;13.606;2023-03-01T06:22:23;52;47;
49708;PMS5003;35601;55.902;13.606;2023-03-01T06:24:48;59;52;
49708;PMS5003;35601;55.902;13.606;2023-03-01T06:27:14;49;46;
49708;PMS5003;35601;55.902;13.606;2023-03-01T06:29:40;58;47;
49708;PMS5003;35601;55.902;13.606;2023-03-01T06:32:05;57;44;
49708;PMS5003;35601;55.902;13.606;2023-03-01T06:34:31;66;53;
49708;PMS5003;35601;55.902;13.606;2023-03-01T06:36:56;70;51;
49708;PMS5003;35601;55.902;13.606;2023-03-01T06:39:21;59;52;
49708;PMS5003;35601;55.902;13.606;2023-03-01T06:41:46;56;48;
49708;PMS5003;35601;55.902;13.606;2023-03-01T06:44:11;60;48;
49708;PMS5003;35601;55.902;13.606;2023-03-01T06:46:38;56;46;
49708;PMS5003;35601;55.902;13.606;2023-03-01T06:49:02;62;52;
49708;PMS5003;35601;55.902;13.606;2023-03-01T06:51:28;52;36;
49708;PMS5003;35601;55.902;13.606;2023-03-01T06:53:55;54;38;
49708;PMS5003;35601;55.902;13.606;2023-03-01T06:56:18;42;36;
49708;PMS5003;35601;55.902;13.606;2023-03-01T06:58:43;53;43;
49708;PMS5003;35601;55.902;13.606;2023-03-01T07:01:09;47;36;
49708;PMS5003;35601;55.902;13.606;2023-03-01T07:03:34;46;34;
49708;PMS5003;35601;55.902;13.606;2023-03-01T07:05:59;53;34;
49708;PMS5003;35601;55.902;13.606;2023-03-01T07:08:25;40;30;
49708;PMS5003;35601;55.902;13.606;2023-03-01T07:10:54;41;35;
49708;PMS5003;35601;55.902;13.606;2023-03-01T07:13:16;45;36;
49708;PMS5003;35601;55.902;13.606;2023-03-01T07:15:41;43;38;
49708;PMS5003;35601;55.902;13.606;2023-03-01T07:18:07;48;36;
49708;PMS5003;35601;55.902;13.606;2023-03-01T07:20:33;54;44;
49708;PMS5003;35601;55.902;13.606;2023-03-01T07:22:58;49;43;
49708;PMS5003;35601;55.902;13.606;2023-03-01T07:25:23;59;44;
49708;PMS5003;35601;55.902;13.606;2023-03-01T07:27:49;54;43;
49708;PMS5003;35601;55.902;13.606;2023-03-01T07:30:14;57;44;
49708;PMS5003;35601;55.902;13.606;2023-03-01T07:32:40;64;46;
49708;PMS5003;35601;55.902;13.606;2023-03-01T07:35:05;78;68;
49708;PMS5003;35601;55.902;13.606;2023-03-01T07:37:30;86;69;
49708;PMS5003;35601;55.902;13.606;2023-03-01T07:39:56;75;56;
49708;PMS5003;35601;55.902;13.606;2023-03-01T07:42:21;58;51;
49708;PMS5003;35601;55.902;13.606;2023-03-01T07:44:46;60;48;
49708;PMS5003;35601;55.902;13.606;2023-03-01T07:47:11;49;42;
49708;PMS5003;35601;55.902;13.606;2023-03-01T07:49:37;56;48;
49708;PMS5003;35601;55.902;13.606;2023-03-01T07:52:02;52;42;
49708;PMS5003;35601;55.902;13.606;2023-03-01T07:54:28;53;40;
49708;PMS5003;35601;55.902;13.606;2023-03-01T07:56:53;52;43;
49708;PMS5003;35601;55.902;13.606;2023-03-01T07:59:19;44;40;
49708;PMS5003;35601;55.902;13.606;2023-03-01T08:01:44;46;40;
49708;PMS5003;35601;55.902;13.606;2023-03-01T08:04:10;46;41;
49708;PMS5003;35601;55.902;13.606;2023-03-01T08:06:35;45;36;
49708;PMS5003;35601;55.902;13.606;2023-03-01T08:09:07;50;39;
49708;PMS5003;35601;55.902;13.606;2023-03-01T08:11:26;44;33;
49708;PMS5003;35601;55.902;13.606;2023-03-01T08:13:52;37;36;
49708;PMS5003;35601;55.902;13.606;2023-03-01T08:16:17;41;34;
49708;PMS5003;35601;55.902;13.606;2023-03-01T08:18:42;40;39;
49708;PMS5003;35601;55.902;13.606;2023-03-01T08:21:08;37;32;
49708;PMS5003;35601;55.902;13.606;2023-03-01T08:23:32;43;36;
49708;PMS5003;35601;55.902;13.606;2023-03-01T08:26:03;44;36;
49708;PMS5003;35601;55.902;13.606;2023-03-01T08:28:23;41;41;
49708;PMS5003;35601;55.902;13.606;2023-03-01T08:30:48;36;32;
49708;PMS5003;35601;55.902;13.606;2023-03-01T08:33:14;48;38;
49708;PMS5003;35601;55.902;13.606;2023-03-01T08:35:39;39;36;
49708;PMS5003;35601;55.902;13.606;2023-03-01T08:38:06;52;42;
49708;PMS5003;35601;55.902;13.606;2023-03-01T08:40:30;43;35;
49708;PMS5003;35601;55.902;13.606;2023-03-01T08:42:56;43;33;
49708;PMS5003;35601;55.902;13.606;2023-03-01T08:45:21;49;39;
49708;PMS5003;35601;55.902;13.606;2023-03-01T08:47:46;42;39;
49708;PMS5003;35601;55.902;13.606;2023-03-01T08:50:11;40;37;
49708;PMS5003;35601;55.902;13.606;2023-03-01T08:52:37;40;36;
49708;PMS5003;35601;55.902;13.606;2023-03-01T08:55:03;40;36;
49708;PMS5003;35601;55.902;13.606;2023-03-01T08:57:29;40;34;
49708;PMS5003;35601;55.902;13.606;2023-03-01T08:59:54;38;31;
49708;PMS5003;35601;55.902;13.606;2023-03-01T09:02:20;43;39;
49708;PMS5003;35601;55.902;13.606;2023-03-01T09:04:45;46;37;
49708;PMS5003;35601;55.902;13.606;2023-03-01T09:07:11;38;35;
49708;PMS5003;35601;55.902;13.606;2023-03-01T09:09:37;39;35;
49708;PMS5003;35601;55.902;13.606;2023-03-01T09:12:01;41;33;
49708;PMS5003;35601;55.902;13.606;2023-03-01T09:14:26;46;38;
49708;PMS5003;35601;55.902;13.606;2023-03-01T09:16:52;49;37;
49708;PMS5003;35601;55.902;13.606;2023-03-01T09:19:17;38;35;
49708;PMS5003;35601;55.902;13.606;2023-03-01T09:21:43;38;34;
49708;PMS5003;35601;55.902;13.606;2023-03-01T09:24:11;30;28;
49708;PMS5003;35601;55.902;13.606;2023-03-01T09:26:35;39;36;
49708;PMS5003;35601;55.902;13.606;2023-03-01T09:29:00;28;26;
49708;PMS5003;35601;55.902;13.606;2023-03-01T09:31:25;33;28;
49708;PMS5003;35601;55.902;13.606;2023-03-01T09:33:51;32;29;
49708;PMS5003;35601;55.902;13.606;2023-03-01T09:36:18;32;30;
49708;PMS5003;35601;55.902;13.606;2023-03-01T09:38:41;30;27;
49708;PMS5003;35601;55.902;13.606;2023-03-01T09:41:09;31;26;
49708;PMS5003;35601;55.902;13.606;2023-03-01T09:43:35;27;26;
49708;PMS5003;35601;55.902;13.606;2023-03-01T09:45:58;33;29;
49708;PMS5003;35601;55.902;13.606;2023-03-01T09:48:24;34;28;
49708;PMS5003;35601;55.902;13.606;2023-03-01T09:50:48;32;26;
49708;PMS5003;35601;55.902;13.606;2023-03-01T09:53:15;21;21;
49708;PMS5003;35601;55.902;13.606;2023-03-01T09:55:42;30;24;
49708;PMS5003;35601;55.902;13.606;2023-03-01T09:58:06;24;20;
49708;PMS5003;35601;55.902;13.606;2023-03-01T10:00:30;21;19;
49708;PMS5003;35601;55.902;13.606;2023-03-01T10:02:57;23;18;
49708;PMS5003;35601;55.902;13.606;2023-03-01T10:05:27;23;23;
49708;PMS5003;35601;55.902;13.606;2023-03-01T10:07:48;20;18;
49708;PMS5003;35601;55.902;13.606;2023-03-01T10:10:16;21;20;
49708;PMS5003;35601;55.902;13.606;2023-03-01T10:12:37;20;16;
49708;PMS5003;35601;55.902;13.606;2023-03-01T10:15:05;22;20;
49708;PMS5003;35601;55.902;13.606;2023-03-01T10:17:30;24;19;
49708;PMS5003;35601;55.902;13.606;2023-03-01T10:19:55;22;20;
49708;PMS5003;35601;55.902;13.606;2023-03-01T10:22:21;20;17;
49708;PMS5003;35601;55.902;13.606;2023-03-01T10:24:47;28;25;
49708;PMS5003;35601;55.902;13.606;2023-03-01T10:27:13;27;27;
49708;PMS5003;35601;55.902;13.606;2023-03-01T10:29:39;23;21;
49708;PMS5003;35601;55.902;13.606;2023-03-01T10:32:02;24;19;
49708;PMS5003;35601;55.902;13.606;2023-03-01T10:34:30;29;23;
49708;PMS5003;35601;55.902;13.606;2023-03-01T10:36:56;17;15;
49708;PMS5003;35601;55.902;13.606;2023-03-01T10:39:19;22;19;
49708;PMS5003;35601;55.902;13.606;2023-03-01T10:44:09;21;20;
49708;PMS5003;35601;55.902;13.606;2023-03-01T10:46:36;22;21;
49708;PMS5003;35601;55.902;13.606;2023-03-01T10:49:07;17;14;
49708;PMS5003;35601;55.902;13.606;2023-03-01T10:51:26;22;17;
49708;PMS5003;35601;55.902;13.606;2023-03-01T10:53:51;20;19;
49708;PMS5003;35601;55.902;13.606;2023-03-01T10:56:19;17;16;
49708;PMS5003;35601;55.902;13.606;2023-03-01T11:03:34;19;15;
49708;PMS5003;35601;55.902;13.606;2023-03-01T11:06:01;22;18;
49708;PMS5003;35601;55.902;13.606;2023-03-01T11:08:32;16;16;
49708;PMS5003;35601;55.902;13.606;2023-03-01T11:10:50;19;15;
49708;PMS5003;35601;55.902;13.606;2023-03-01T11:13:17;17;13;
49708;PMS5003;35601;55.902;13.606;2023-03-01T11:15:42;20;17;
49708;PMS5003;35601;55.902;13.606;2023-03-01T11:20:34;13;12;
49708;PMS5003;35601;55.902;13.606;2023-03-01T11:22:58;14;12;
49708;PMS5003;35601;55.902;13.606;2023-03-01T11:25:24;16;14;
49708;PMS5003;35601;55.902;13.606;2023-03-01T11:27:48;14;13;
49708;PMS5003;35601;55.902;13.606;2023-03-01T11:30:15;12;10;
49708;PMS5003;35601;55.902;13.606;2023-03-01T11:32:39;15;12;
49708;PMS5003;35601;55.902;13.606;2023-03-01T11:35:09;12;11;
49708;PMS5003;35601;55.902;13.606;2023-03-01T11:37:33;13;10;
49708;PMS5003;35601;55.902;13.606;2023-03-01T11:39:57;14;12;
49708;PMS5003;35601;55.902;13.606;2023-03-01T11:42:24;9;9;
49708;PMS5003;35601;55.902;13.606;2023-03-01T11:44:46;12;10;
49708;PMS5003;35601;55.902;13.606;2023-03-01T11:47:16;9;8;
49708;PMS5003;35601;55.902;13.606;2023-03-01T11:49:47;10;7;
49708;PMS5003;35601;55.902;13.606;2023-03-01T11:52:03;13;9;
49708;PMS5003;35601;55.902;13.606;2023-03-01T11:54:30;9;8;
49708;PMS5003;35601;55.902;13.606;2023-03-01T11:56:55;7;6;
49708;PMS5003;35601;55.902;13.606;2023-03-01T12:01:47;0;0;
49708;PMS5003;35601;55.902;13.606;2023-03-01T12:06:36;0;0;
49708;PMS5003;35601;55.902;13.606;2023-03-01T12:09:02;1;1;
49708;PMS5003;35601;55.902;13.606;2023-03-01T12:11:26;1;1;
49708;PMS5003;35601;55.902;13.606;2023-03-01T12:13:53;3;2;
49708;PMS5003;35601;55.902;13.606;2023-03-01T12:16:20;0;0;
49708;PMS5003;35601;55.902;13.606;2023-03-01T12:18:45;2;1;
49708;PMS5003;35601;55.902;13.606;2023-03-01T12:21:16;1;1;
49708;PMS5003;35601;55.902;13.606;2023-03-01T12:23:35;0;0;
49708;PMS5003;35601;55.902;13.606;2023-03-01T12:25:55;0;0;
49708;PMS5003;35601;55.902;13.606;2023-03-01T12:28:26;0;0;
49708;PMS5003;35601;55.902;13.606;2023-03-01T12:30:51;0;0;
49708;PMS5003;35601;55.902;13.606;2023-03-01T12:33:16;0;0;
49708;PMS5003;35601;55.902;13.606;2023-03-01T12:35:38;0;0;
49708;PMS5003;35601;55.902;13.606;2023-03-01T12:38:06;0;0;
49708;PMS5003;35601;55.902;13.606;2023-03-01T12:40:31;0;0;
49708;PMS5003;35601;55.902;13.606;2023-03-01T12:42:55;0;0;
49708;PMS5003;35601;55.902;13.606;2023-03-01T12:45:24;2;0;
49708;PMS5003;35601;55.902;13.606;2023-03-01T12:47:47;0;0;
49708;PMS5003;35601;55.902;13.606;2023-03-01T12:50:11;2;0;
49708;PMS5003;35601;55.902;13.606;2023-03-01T12:52:34;0;0;
49708;PMS5003;35601;55.902;13.606;2023-03-01T12:54:57;0;0;
49708;PMS5003;35601;55.902;13.606;2023-03-01T12:57:24;0;0;
49708;PMS5003;35601;55.902;13.606;2023-03-01T12:59:51;0;0;
49708;PMS5003;35601;55.902;13.606;2023-03-01T13:02:14;0;0;
49708;PMS5003;35601;55.902;13.606;2023-03-01T13:04:43;0;0;
49708;PMS5003;35601;55.902;13.606;2023-03-01T13:07:08;0;0;
49708;PMS5003;35601;55.902;13.606;2023-03-01T13:09:31;0;0;
49708;PMS5003;35601;55.902;13.606;2023-03-01T13:11:54;0;0;
49708;PMS5003;35601;55.902;13.606;2023-03-01T13:16:44;0;0;
49708;PMS5003;35601;55.902;13.606;2023-03-01T13:19:13;2;1;
49708;PMS5003;35601;55.902;13.606;2023-03-01T13:21:36;1;0;
49708;PMS5003;35601;55.902;13.606;2023-03-01T13:24:01;0;0;
49708;PMS5003;35601;55.902;13.606;2023-03-01T13:26:25;0;0;
49708;PMS5003;35601;55.902;13.606;2023-03-01T13:28:52;0;0;
49708;PMS5003;35601;55.902;13.606;2023-03-01T13:33:43;1;1;
49708;PMS5003;35601;55.902;13.606;2023-03-01T13:36:06;1;1;
49708;PMS5003;35601;55.902;13.606;2023-03-01T13:40:58;1;1;
49708;PMS5003;35601;55.902;13.606;2023-03-01T13:43:26;0;0;
49708;PMS5003;35601;55.902;13.606;2023-03-01T13:45:47;2;2;
49708;PMS5003;35601;55.902;13.606;2023-03-01T13:48:15;0;0;
49708;PMS5003;35601;55.902;13.606;2023-03-01T13:50:42;1;1;
49708;PMS5003;35601;55.902;13.606;2023-03-01T13:53:03;0;0;
49708;PMS5003;35601;55.902;13.606;2023-03-01T13:55:32;1;1;
49708;PMS5003;35601;55.902;13.606;2023-03-01T13:57:54;1;1;
49708;PMS5003;35601;55.902;13.606;2023-03-01T14:02:43;2;2;
49708;PMS5003;35601;55.902;13.606;2023-03-01T14:05:11;1;1;
49708;PMS5003;35601;55.902;13.606;2023-03-01T14:07:34;2;2;
49708;PMS5003;35601;55.902;13.606;2023-03-01T14:10:00;1;1;
49708;PMS5003;35601;55.902;13.606;2023-03-01T14:12:32;2;2;
49708;PMS5003;35601;55.902;13.606;2023-03-01T14:14:52;2;2;
49708;PMS5003;35601;55.902;13.606;2023-03-01T14:17:26;1;1;
49708;PMS5003;35601;55.902;13.606;2023-03-01T14:19:40;1;1;
49708;PMS5003;35601;55.902;13.606;2023-03-01T14:22:16;1;1;
49708;PMS5003;35601;55.902;13.606;2023-03-01T14:24:31;2;2;
49708;PMS5003;35601;55.902;13.606;2023-03-01T14:26:57;3;2;
49708;PMS5003;35601;55.902;13.606;2023-03-01T14:29:25;1;1;
49708;PMS5003;35601;55.902;13.606;2023-03-01T14:31:47;4;1;
49708;PMS5003;35601;55.902;13.606;2023-03-01T14:34:16;1;1;
49708;PMS5003;35601;55.902;13.606;2023-03-01T14:36:37;2;1;
49708;PMS5003;35601;55.902;13.606;2023-03-01T14:39:15;2;1;
49708;PMS5003;35601;55.902;13.606;2023-03-01T14:41:27;2;2;
49708;PMS5003;35601;55.902;13.606;2023-03-01T14:43:53;2;2;
49708;PMS5003;35601;55.902;13.606;2023-03-01T14:46:19;2;2;
49708;PMS5003;35601;55.902;13.606;2023-03-01T14:48:43;3;2;
49708;PMS5003;35601;55.902;13.606;2023-03-01T14:51:09;1;1;
49708;PMS5003;35601;55.902;13.606;2023-03-01T14:53:33;2;2;
49708;PMS5003;35601;55.902;13.606;2023-03-01T14:55:59;1;1;
49708;PMS5003;35601;55.902;13.606;2023-03-01T14:58:25;2;2;
49708;PMS5003;35601;55.902;13.606;2023-03-01T15:00:50;2;2;
49708;PMS5003;35601;55.902;13.606;2023-03-01T15:03:17;3;1;
49708;PMS5003;35601;55.902;13.606;2023-03-01T15:05:40;1;1;
49708;PMS5003;35601;55.902;13.606;2023-03-01T15:08:05;2;2;
49708;PMS5003;35601;55.902;13.606;2023-03-01T15:10:31;0;0;
49708;PMS5003;35601;55.902;13.606;2023-03-01T15:12:56;2;2;
49708;PMS5003;35601;55.902;13.606;2023-03-01T15:15:23;4;4;
49708;PMS5003;35601;55.902;13.606;2023-03-01T15:17:48;1;1;
49708;PMS5003;35601;55.902;13.606;2023-03-01T15:20:16;1;1;
49708;PMS5003;35601;55.902;13.606;2023-03-01T15:22:37;2;2;
49708;PMS5003;35601;55.902;13.606;2023-03-01T15:25:02;2;2;
49708;PMS5003;35601;55.902;13.606;2023-03-01T15:27:27;5;2;
49708;PMS5003;35601;55.902;13.606;2023-03-01T15:29:54;1;1;
49708;PMS5003;35601;55.902;13.606;2023-03-01T15:32:24;0;0;
49708;PMS5003;35601;55.902;13.606;2023-03-01T15:34:43;1;1;
49708;PMS5003;35601;55.902;13.606;2023-03-01T15:39:35;0;0;
49708;PMS5003;35601;55.902;13.606;2023-03-01T15:41:59;0;0;
49708;PMS5003;35601;55.902;13.606;2023-03-01T15:44:26;2;1;
49708;PMS5003;35601;55.902;13.606;2023-03-01T15:46:49;0;0;
49708;PMS5003;35601;55.902;13.606;2023-03-01T15:49:23;0;0;
49708;PMS5003;35601;55.902;13.606;2023-03-01T15:51:40;2;2;
49708;PMS5003;35601;55.902;13.606;2023-03-01T15:54:10;6;6;
49708;PMS5003;35601;55.902;13.606;2023-03-01T15:56:32;6;5;
49708;PMS5003;35601;55.902;13.606;2023-03-01T15:58:57;5;4;
49708;PMS5003;35601;55.902;13.606;2023-03-01T16:01:22;4;4;
49708;PMS5003;35601;55.902;13.606;2023-03-01T16:03:47;4;4;
49708;PMS5003;35601;55.902;13.606;2023-03-01T16:06:13;3;3;
49708;PMS5003;35601;55.902;13.606;2023-03-01T16:08:38;3;2;
49708;PMS5003;35601;55.902;13.606;2023-03-01T16:11:04;2;2;
49708;PMS5003;35601;55.902;13.606;2023-03-01T16:13:28;3;3;
49708;PMS5003;35601;55.902;13.606;2023-03-01T16:15:54;2;2;
49708;PMS5003;35601;55.902;13.606;2023-03-01T16:18:19;5;4;
49708;PMS5003;35601;55.902;13.606;2023-03-01T16:20:44;5;5;
49708;PMS5003;35601;55.902;13.606;2023-03-01T16:23:10;4;3;
49708;PMS5003;35601;55.902;13.606;2023-03-01T16:25:35;3;2;
49708;PMS5003;35601;55.902;13.606;2023-03-01T16:28:00;5;3;